Time;durP1;ratioP1;P1;durP2;ratioP2;P2;SDS_P1;SDS_P2;PMS_P1;PMS_P2;Temp;Humidity;BMP_temperature;BMP_pressure;BME280_temperature;BME280_humidity;BME280_pressure;Samples;Min_cycle;Max_cycle;Signal;HPM_P1;HPM_P2
2021/01/27 00:01:12;;;;;;;2.93;1.83;;;;;;;-2.63;69.96;95773.22;4994592;28;20201;-75
2021/01/27 00:03:37;;;;;;;3.73;1.47;;;;;;;-2.75;70.91;95771.16;4977089;28;20528;-75
2021/01/27 00:06:03;;;;;;;4.93;2.13;;;;;;;-2.66;70.25;95770.78;4993688;28;20208;-75
2021/01/27 00:08:28;;;;;;;4.03;1.90;;;;;;;-2.75;71.41;95761.00;4977085;28;20252;-75
2021/01/27 00:10:54;;;;;;;2.63;1.90;;;;;;;-2.82;72.18;95754.53;4994515;28;20241;-75
2021/01/27 00:13:20;;;;;;;5.63;1.83;;;;;;;-2.73;71.29;95754.16;4994573;28;20567;-75
2021/01/27 00:15:46;;;;;;;7.00;2.17;;;;;;;-2.73;70.82;95755.88;4960419;28;20579;-75
2021/01/27 00:18:13;;;;;;;5.30;2.00;;;;;;;-2.76;71.17;95751.72;4976929;28;20224;-75
2021/01/27 00:20:38;;;;;;;6.17;2.43;;;;;;;-2.72;71.45;95747.34;4994358;28;20203;-75
2021/01/27 00:23:04;;;;;;;1.83;1.63;;;;;;;-2.81;71.17;95743.47;4976784;28;20243;-75
2021/01/27 00:25:32;;;;;;;3.80;1.90;;;;;;;-2.83;71.27;95737.59;4960535;28;20283;-75
2021/01/27 00:27:58;;;;;;;5.13;2.10;;;;;;;-2.92;71.62;95748.16;4976793;28;20268;-75
2021/01/27 00:30:27;;;;;;;4.63;2.13;;;;;;;-2.92;72.04;95737.97;4976931;28;20180;-75
2021/01/27 00:32:53;;;;;;;3.47;1.70;;;;;;;-2.80;72.06;95729.06;4994147;28;20266;-75
2021/01/27 00:35:20;;;;;;;3.77;2.20;;;;;;;-2.81;72.04;95718.06;4976377;28;20293;-75
2021/01/27 00:37:46;;;;;;;2.70;1.70;;;;;;;-2.80;72.25;95726.50;4976662;28;20315;-75
2021/01/27 00:40:11;;;;;;;5.13;2.17;;;;;;;-2.84;72.55;95735.97;4976598;28;20270;-75
2021/01/27 00:42:37;;;;;;;3.77;2.20;;;;;;;-2.78;71.98;95717.94;4993738;28;20208;-75
2021/01/27 00:45:04;;;;;;;3.07;1.90;;;;;;;-2.72;71.89;95710.06;4976181;28;20221;-75
2021/01/27 00:47:30;;;;;;;3.03;1.80;;;;;;;-2.73;71.08;95712.66;4976132;28;20646;-75
2021/01/27 00:49:55;;;;;;;5.77;2.10;;;;;;;-2.79;71.45;95712.91;4993733;28;20186;-75
2021/01/27 00:52:20;;;;;;;4.00;2.03;;;;;;;-2.79;72.51;95705.28;4960123;28;20187;-75
2021/01/27 00:54:46;;;;;;;6.57;1.80;;;;;;;-2.79;72.42;95718.81;4975959;28;20191;-75
2021/01/27 00:57:11;;;;;;;3.03;1.90;;;;;;;-2.91;73.45;95704.09;4976278;28;20204;-75
2021/01/27 00:59:36;;;;;;;2.50;2.00;;;;;;;-2.96;73.75;95693.28;4976136;28;20180;-75
2021/01/27 01:02:02;;;;;;;4.03;2.43;;;;;;;-2.93;73.24;95691.41;4993388;28;20209;-75
2021/01/27 01:04:27;;;;;;;3.43;1.83;;;;;;;-2.91;72.98;95702.38;4975902;28;20219;-75
2021/01/27 01:06:52;;;;;;;6.03;2.17;;;;;;;-2.91;73.47;95704.91;4975891;28;20266;-75
2021/01/27 01:09:17;;;;;;;2.50;1.90;;;;;;;-2.93;73.28;95705.84;4976025;28;20214;-75
2021/01/27 01:11:43;;;;;;;3.50;1.73;;;;;;;-2.94;73.77;95699.09;4975920;28;20195;-75
2021/01/27 01:14:08;;;;;;;2.80;1.80;;;;;;;-2.95;73.93;95692.38;4975988;28;20203;-75
2021/01/27 01:16:34;;;;;;;2.77;2.00;;;;;;;-2.95;73.78;95690.66;4974683;28;20719;-75
2021/01/27 01:18:59;;;;;;;2.73;1.87;;;;;;;-3.02;73.83;95701.94;4993209;28;20222;-75
2021/01/27 01:21:24;;;;;;;3.30;2.20;;;;;;;-3.02;73.92;95701.13;4993063;28;20255;-75
2021/01/27 01:23:49;;;;;;;2.67;2.17;;;;;;;-2.94;73.85;95699.09;4992978;28;20181;-75
2021/01/27 01:26:15;;;;;;;3.93;1.93;;;;;;;-3.02;74.75;95698.59;4975388;28;20766;-75
2021/01/27 01:28:40;;;;;;;3.63;1.83;;;;;;;-3.05;75.36;95691.09;4975645;28;20207;-75
2021/01/27 01:31:05;;;;;;;4.17;1.97;;;;;;;-3.04;75.09;95687.66;4993077;28;20177;-75
2021/01/27 01:33:32;;;;;;;4.17;2.20;;;;;;;-3.09;75.33;95687.00;4992798;28;20276;-75
2021/01/27 01:35:58;;;;;;;2.73;2.10;;;;;;;-3.10;75.21;95693.00;4992689;28;20200;-75
2021/01/27 01:38:24;;;;;;;2.23;1.97;;;;;;;-3.19;75.18;95679.75;4959366;28;20185;-75
2021/01/27 01:40:50;;;;;;;2.63;2.17;;;;;;;-3.21;76.55;95681.53;4959149;28;20665;-75
2021/01/27 01:43:18;;;;;;;6.13;2.30;;;;;;;-3.10;75.88;95677.75;4975462;28;20192;-75
2021/01/27 01:45:47;;;;;;;3.40;2.07;;;;;;;-3.08;76.16;95670.91;4975211;28;20202;-75
2021/01/27 01:48:34;;;;;;;2.57;2.03;;;;;;;-3.19;75.80;95661.97;4975250;28;20221;-75
2021/01/27 01:51:20;;;;;;;4.20;2.03;;;;;;;-3.05;76.00;95660.63;4992771;28;20177;-75
2021/01/27 01:53:50;;;;;;;2.70;2.17;;;;;;;-3.15;76.28;95657.63;4992127;28;20665;-75
2021/01/27 01:56:18;;;;;;;3.67;2.13;;;;;;;-3.13;76.56;95655.84;4974961;28;20258;-75
2021/01/27 01:58:43;;;;;;;5.07;2.20;;;;;;;-3.17;75.78;95647.53;4975225;28;20602;-75
2021/01/27 02:01:09;;;;;;;2.97;2.00;;;;;;;-3.17;76.93;95657.69;4975102;28;20216;-75
2021/01/27 02:03:35;;;;;;;4.73;2.47;;;;;;;-3.11;76.14;95646.44;4975250;28;20216;-75
2021/01/27 02:06:02;;;;;;;4.40;2.23;;;;;;;-3.20;76.78;95627.31;4958915;28;20590;-75
2021/01/27 02:08:29;;;;;;;3.07;2.53;;;;;;;-3.23;76.85;95621.56;4992595;28;20276;-75
2021/01/27 02:10:54;;;;;;;3.17;1.90;;;;;;;-3.21;76.21;95624.84;4959082;28;20280;-75
2021/01/27 02:13:41;;;;;;;4.23;2.33;;;;;;;-3.25;76.65;95619.09;4958994;28;20227;-75
2021/01/27 02:16:44;;;;;;;3.07;2.23;;;;;;;-3.16;76.48;95622.97;4974683;28;20206;-75
2021/01/27 02:19:47;;;;;;;2.50;2.07;;;;;;;-3.34;77.39;95622.00;4975101;28;20186;-75
2021/01/27 02:22:45;;;;;;;3.27;2.20;;;;;;;-3.34;77.34;95629.63;4992453;28;20207;-75
2021/01/27 02:25:32;;;;;;;3.30;2.50;;;;;;;-3.33;77.03;95626.19;4992336;28;20637;-75
2021/01/27 02:27:59;;;;;;;3.90;2.50;;;;;;;-3.42;77.11;95626.56;4994342;28;20180;-75
2021/01/27 02:30:46;;;;;;;3.27;2.60;;;;;;;-3.39;77.73;95626.41;4979073;28;20199;-75
2021/01/27 02:33:30;;;;;;;4.50;2.20;;;;;;;-3.30;78.07;95625.22;4996802;28;20516;-75
2021/01/27 02:36:14;;;;;;;3.27;1.97;;;;;;;-3.38;77.66;95623.00;4978757;28;20203;-75
2021/01/27 02:38:42;;;;;;;2.47;2.27;;;;;;;-3.37;77.76;95622.09;4979123;28;20587;-75
2021/01/27 02:41:17;;;;;;;3.17;2.30;;;;;;;-3.21;77.63;95615.50;4979047;28;20632;-75
2021/01/27 02:43:45;;;;;;;2.30;2.10;;;;;;;-3.28;77.38;95611.56;4979084;28;20586;-75
2021/01/27 02:46:16;;;;;;;3.63;2.30;;;;;;;-3.30;77.61;95610.81;4978753;28;20667;-75
2021/01/27 02:48:49;;;;;;;3.90;2.43;;;;;;;-3.31;77.82;95615.97;4979173;28;20700;-75
2021/01/27 02:51:22;;;;;;;3.70;2.40;;;;;;;-3.24;77.23;95630.88;4979252;28;20201;-75
2021/01/27 02:53:52;;;;;;;4.53;2.10;;;;;;;-3.22;77.23;95615.59;4978922;28;20201;-75
2021/01/27 02:56:22;;;;;;;3.73;2.37;;;;;;;-3.19;77.40;95616.25;4962402;28;20209;-75
2021/01/27 02:58:57;;;;;;;3.93;2.10;;;;;;;-3.00;75.62;95615.53;4978649;28;20192;-75
2021/01/27 03:01:30;;;;;;;3.03;2.07;;;;;;;-3.06;75.68;95610.69;4978237;28;20210;-75
2021/01/27 03:04:00;;;;;;;2.40;1.70;;;;;;;-3.09;76.41;95618.41;4978249;28;20270;-75
2021/01/27 03:06:25;;;;;;;2.97;1.90;;;;;;;-3.09;75.80;95613.34;4961638;28;20306;-75
2021/01/27 03:08:56;;;;;;;3.00;1.90;;;;;;;-3.06;75.47;95605.63;4978261;28;20657;-75
2021/01/27 03:11:23;;;;;;;4.33;2.30;;;;;;;-3.06;76.06;95603.91;4962109;28;20596;-76
2021/01/27 03:13:49;;;;;;;2.03;1.83;;;;;;;-3.05;76.10;95607.25;4978101;28;20248;-75
2021/01/27 03:16:26;;;;;;;3.43;1.77;;;;;;;-3.02;75.50;95607.13;4977556;28;20236;-75
2021/01/27 03:18:57;;;;;;;4.43;1.97;;;;;;;-3.00;76.16;95615.53;4978087;28;20181;-75
2021/01/27 03:21:26;;;;;;;3.77;1.60;;;;;;;-2.96;75.26;95611.97;4978068;28;20199;-76
2021/01/27 03:23:55;;;;;;;3.13;1.80;;;;;;;-2.97;75.01;95607.78;4977749;28;20204;-75
2021/01/27 03:26:26;;;;;;;2.00;1.77;;;;;;;-2.96;74.84;95602.63;4977615;28;20199;-75
2021/01/27 03:28:59;;;;;;;6.43;2.73;;;;;;;-2.96;75.44;95599.25;4977842;28;20183;-75
2021/01/27 03:31:25;;;;;;;4.13;2.50;;;;;;;-2.96;75.16;95602.63;4961589;28;20187;-75
2021/01/27 03:33:58;;;;;;;5.07;2.43;;;;;;;-2.93;75.03;95594.03;4977551;28;20178;-75
2021/01/27 03:36:24;;;;;;;3.53;1.80;;;;;;;-2.88;74.58;95594.66;4960976;28;20619;-76
2021/01/27 03:38:51;;;;;;;1.53;1.30;;;;;;;-2.78;73.89;95595.91;4960433;28;20341;-76
2021/01/27 03:41:32;;;;;;;1.83;1.40;;;;;;;-2.75;74.24;95594.97;4977354;28;20270;-76
2021/01/27 03:44:13;;;;;;;2.13;1.83;;;;;;;-2.80;73.95;95587.53;4977429;28;20195;-75
2021/01/27 03:46:59;;;;;;;1.97;1.80;;;;;;;-2.79;74.83;95581.56;4960753;28;20259;-76
2021/01/27 03:49:27;;;;;;;2.90;1.70;;;;;;;-2.84;74.78;95578.38;4977370;28;20294;-76
2021/01/27 03:52:07;;;;;;;4.40;2.00;;;;;;;-2.87;75.20;95570.91;4961143;28;20193;-76
2021/01/27 03:54:34;;;;;;;1.70;1.60;;;;;;;-2.94;75.41;95570.34;4960988;28;20648;-76
2021/01/27 03:57:03;;;;;;;4.50;2.43;;;;;;;-2.86;75.16;95567.47;4960833;28;20710;-76
2021/01/27 03:59:28;;;;;;;4.20;1.77;;;;;;;-2.83;75.40;95564.78;4961003;28;20327;-76
2021/01/27 04:01:55;;;;;;;2.73;1.90;;;;;;;-2.95;75.76;95558.53;4977116;28;20681;-76
2021/01/27 04:04:21;;;;;;;2.87;1.80;;;;;;;-2.81;74.61;95562.19;4960603;28;20209;-76
2021/01/27 04:06:47;;;;;;;4.27;2.00;;;;;;;-2.97;75.94;95557.78;4960845;28;20580;-76
2021/01/27 04:09:13;;;;;;;2.70;1.93;;;;;;;-2.88;75.06;95548.94;4994333;28;20308;-76
2021/01/27 04:11:38;;;;;;;2.40;1.83;;;;;;;-2.87;75.41;95538.69;4960746;28;20183;-76
2021/01/27 04:14:04;;;;;;;2.43;1.60;;;;;;;-2.94;75.24;95534.75;4960719;28;20221;-76
2021/01/27 04:16:30;;;;;;;3.10;1.50;;;;;;;-2.83;75.60;95536.00;4960410;28;20681;-76
2021/01/27 04:18:57;;;;;;;4.07;2.17;;;;;;;-2.79;75.19;95528.19;4976804;28;20194;-76
2021/01/27 04:21:22;;;;;;;3.30;1.90;;;;;;;-2.88;75.64;95515.91;4976626;28;20264;-76
2021/01/27 04:23:47;;;;;;;2.47;1.80;;;;;;;-2.77;75.08;95507.78;4976659;28;20182;-76
2021/01/27 04:26:13;;;;;;;2.73;2.03;;;;;;;-2.78;75.29;95501.88;4976374;28;20559;-75
2021/01/27 04:28:38;;;;;;;2.57;2.13;;;;;;;-2.81;75.50;95504.56;4994079;28;20187;-76
2021/01/27 04:31:03;;;;;;;2.53;1.93;;;;;;;-2.81;75.09;95496.94;4976633;28;20190;-76
2021/01/27 04:33:29;;;;;;;3.03;1.90;;;;;;;-2.79;74.95;95492.63;4976540;28;20663;-76
2021/01/27 04:35:54;;;;;;;2.50;2.23;;;;;;;-2.82;75.53;95495.31;4960062;28;20237;-76
2021/01/27 04:38:20;;;;;;;2.73;2.07;;;;;;;-2.88;75.91;95487.94;4976386;28;20187;-76
2021/01/27 04:40:46;;;;;;;3.13;2.03;;;;;;;-2.86;75.92;95476.81;4960119;28;20189;-76
2021/01/27 04:43:34;;;;;;;3.13;2.20;;;;;;;-2.90;76.62;95487.19;4976291;28;20215;-76
2021/01/27 04:46:25;;;;;;;3.23;2.00;;;;;;;-2.87;76.86;95477.69;4976035;28;20196;-76
2021/01/27 04:49:12;;;;;;;3.60;2.03;;;;;;;-2.88;76.73;95476.06;4976272;28;20715;-76
2021/01/27 04:51:57;;;;;;;5.03;2.60;;;;;;;-2.83;76.43;95488.53;4976138;28;20176;-76
2021/01/27 04:54:25;;;;;;;4.30;2.10;;;;;;;-2.81;76.79;95488.50;4959625;28;20221;-76
2021/01/27 04:57:22;;;;;;;3.53;2.10;;;;;;;-2.72;75.93;95467.75;4993313;28;20200;-76
2021/01/27 05:00:06;;;;;;;4.07;2.33;;;;;;;-2.77;76.92;95462.03;4976122;28;20254;-76
2021/01/27 05:02:51;;;;;;;5.73;2.37;;;;;;;-2.75;76.26;95458.53;4993399;28;20212;-76
2021/01/27 05:05:30;;;;;;;3.27;2.40;;;;;;;-2.78;76.93;95461.22;4975792;28;20275;-76
2021/01/27 05:08:12;;;;;;;3.87;1.90;;;;;;;-2.72;76.28;95455.88;4975909;28;20183;-76
2021/01/27 05:10:54;;;;;;;2.90;2.60;;;;;;;-2.75;76.28;95461.06;4993289;28;20185;-76
2021/01/27 05:13:26;;;;;;;3.20;2.63;;;;;;;-2.68;76.51;95441.28;4975809;28;20227;-76
2021/01/27 05:15:54;;;;;;;4.80;2.60;;;;;;;-2.74;76.51;95444.09;4959150;28;20206;-76
2021/01/27 05:18:19;;;;;;;4.03;2.40;;;;;;;-2.73;77.00;95444.06;4959488;28;20192;-76
2021/01/27 05:20:48;;;;;;;4.07;2.10;;;;;;;-2.68;76.99;95436.19;4975836;28;20180;-76
2021/01/27 05:23:13;;;;;;;3.87;2.40;;;;;;;-2.64;75.93;95441.09;4975294;28;20226;-76
2021/01/27 05:26:03;;;;;;;2.43;1.90;;;;;;;-2.55;75.47;95439.00;4975218;28;20200;-76
2021/01/27 05:28:32;;;;;;;3.40;1.83;;;;;;;-2.59;76.15;95441.69;4959327;28;20218;-76
2021/01/27 05:30:57;;;;;;;2.73;1.77;;;;;;;-2.55;75.25;95441.56;4959327;28;20184;-76
2021/01/27 05:33:55;;;;;;;3.00;1.53;;;;;;;-2.42;73.64;95432.44;4975382;28;20715;-76
2021/01/27 05:36:26;;;;;;;2.63;1.60;;;;;;;-2.40;73.14;95436.56;4916367;29;20351;-76
2021/01/27 05:39:12;;;;;;;2.57;1.50;;;;;;;-2.29;72.38;95434.34;4916633;29;20297;-76
2021/01/27 05:41:38;;;;;;;1.63;1.33;;;;;;;-2.21;72.05;95428.88;4900901;29;20302;-76
2021/01/27 05:44:14;;;;;;;2.10;1.47;;;;;;;-2.19;72.12;95428.81;4916850;29;20399;-76
2021/01/27 05:46:40;;;;;;;1.30;1.10;;;;;;;-2.13;71.66;95433.59;4900329;29;20734;-76
2021/01/27 05:49:25;;;;;;;1.80;1.23;;;;;;;-2.08;71.32;95442.66;4916603;29;20179;-76
2021/01/27 05:51:50;;;;;;;1.47;1.13;;;;;;;-1.98;70.18;95449.84;4932330;29;20194;-76
2021/01/27 05:54:26;;;;;;;2.73;1.80;;;;;;;-2.01;70.94;95446.56;4916237;29;20200;-76
2021/01/27 05:56:52;;;;;;;4.47;2.10;;;;;;;-2.03;70.98;95445.81;4916268;29;20311;-76
2021/01/27 05:59:22;;;;;;;6.17;2.10;;;;;;;-1.92;70.30;95441.94;4916404;29;20198;-76
2021/01/27 06:01:49;;;;;;;3.30;1.93;;;;;;;-1.94;70.65;95428.44;4915908;29;20632;-76
2021/01/27 06:04:27;;;;;;;2.83;1.90;;;;;;;-1.89;69.93;95421.41;4915807;29;20197;-76
2021/01/27 06:07:03;;;;;;;1.73;1.23;;;;;;;-1.84;69.38;95422.84;4916186;29;20313;-76
2021/01/27 06:09:31;;;;;;;2.33;0.83;;;;;;;-1.82;69.50;95427.84;4916257;29;20181;-76
2021/01/27 06:12:24;;;;;;;1.37;1.17;;;;;;;-1.78;69.75;95442.88;4962533;28;20186;-76
2021/01/27 06:15:10;;;;;;;0.90;0.90;;;;;;;-1.75;69.46;95439.38;4983889;28;20284;-76
2021/01/27 06:17:48;;;;;;;1.93;1.47;;;;;;;-1.80;69.78;95439.59;4974642;28;20185;-76
2021/01/27 06:20:17;;;;;;;3.87;2.00;;;;;;;-1.80;70.01;95448.94;4974752;28;20551;-76
2021/01/27 06:23:09;;;;;;;4.87;2.93;;;;;;;-1.83;70.81;95438.94;4992057;28;20210;-76
2021/01/27 06:25:37;;;;;;;2.47;1.40;;;;;;;-1.83;71.07;95432.13;4991861;28;20197;-76
2021/01/27 06:28:24;;;;;;;2.43;1.83;;;;;;;-1.89;72.12;95429.03;4991932;28;20182;-76
2021/01/27 06:30:59;;;;;;;2.47;1.90;;;;;;;-1.93;72.71;95432.66;4970706;28;20647;-74
2021/01/27 06:33:32;;;;;;;2.30;0.90;;;;;;;-1.87;72.18;95427.25;5000585;28;20191;-75
2021/01/27 06:36:29;;;;;;;1.03;1.00;;;;;;;-1.90;72.31;95422.31;4954111;28;20215;-75
2021/01/27 06:39:03;;;;;;;1.77;1.07;;;;;;;-1.94;73.55;95416.56;4955166;28;20183;-76
2021/01/27 06:41:40;;;;;;;1.40;1.10;;;;;;;-1.93;73.66;95414.84;4954997;28;20670;-75
2021/01/27 06:44:12;;;;;;;1.10;0.83;;;;;;;-1.98;74.67;95407.41;4939085;28;20665;-76
2021/01/27 06:46:43;;;;;;;2.10;1.27;;;;;;;-2.04;75.59;95413.63;4956323;28;20807;-76
2021/01/27 06:49:40;;;;;;;1.00;0.90;;;;;;;-2.07;76.25;95418.88;4974088;28;20194;-74
2021/01/27 06:52:26;;;;;;;1.23;0.67;;;;;;;-2.10;76.44;95413.94;4957482;28;20305;-74
2021/01/27 06:55:03;;;;;;;2.97;0.97;;;;;;;-2.24;77.81;95402.78;4934415;28;20197;-75
2021/01/27 06:57:50;;;;;;;4.93;2.00;;;;;;;-2.21;77.74;95408.53;4973686;28;20195;-74
2021/01/27 07:00:26;;;;;;;2.97;1.37;;;;;;;-2.23;77.68;95419.69;4973526;28;20206;-75
2021/01/27 07:03:16;;;;;;;1.20;1.03;;;;;;;-2.31;78.93;95420.03;4973595;28;20267;-75
2021/01/27 07:06:00;;;;;;;2.07;1.50;;;;;;;-2.29;78.75;95425.91;4990332;28;20265;-75
2021/01/27 07:08:54;;;;;;;1.23;1.10;;;;;;;-2.26;79.28;95425.75;4973876;28;20193;-75
2021/01/27 07:11:37;;;;;;;1.70;1.30;;;;;;;-2.29;79.23;95418.28;4990733;28;20186;-74
2021/01/27 07:14:13;;;;;;;2.17;0.87;;;;;;;-2.30;79.16;95422.53;4992714;28;20193;-74
2021/01/27 07:17:04;;;;;;;1.80;1.30;;;;;;;-2.30;79.39;95414.91;4977413;28;20597;-75
2021/01/27 07:19:52;;;;;;;2.50;0.87;;;;;;;-2.32;79.70;95426.03;4963849;28;20193;-75
2021/01/27 07:22:22;;;;;;;2.13;1.07;;;;;;;-2.33;80.09;95427.75;4960554;28;20214;-74
2021/01/27 07:25:11;;;;;;;1.20;1.07;;;;;;;-2.24;79.70;95436.66;4976904;28;20192;-75
2021/01/27 07:27:50;;;;;;;1.17;0.90;;;;;;;-2.23;79.80;95432.41;4977135;28;20230;-74
2021/01/27 07:30:31;;;;;;;1.30;1.13;;;;;;;-2.25;80.25;95435.03;4977305;28;20683;-74
2021/01/27 07:33:00;;;;;;;0.90;0.80;;;;;;;-2.18;79.55;95433.84;4976144;28;20189;-75
2021/01/27 07:35:58;;;;;;;1.37;0.90;;;;;;;-2.27;80.13;95436.81;4976763;28;20204;-76
2021/01/27 07:38:27;;;;;;;1.30;1.10;;;;;;;-2.31;80.38;95431.03;4960792;28;20297;-76
2021/01/27 07:40:57;;;;;;;1.27;1.17;;;;;;;-2.23;80.63;95424.75;4976624;28;20188;-76
2021/01/27 07:43:28;;;;;;;2.00;1.00;;;;;;;-2.24;80.81;95429.03;4976139;28;20210;-75
2021/01/27 07:45:54;;;;;;;1.77;1.17;;;;;;;-2.26;80.76;95418.13;4976232;28;20559;-74
2021/01/27 07:48:41;;;;;;;1.10;1.00;;;;;;;-2.26;80.51;95423.19;4994011;28;20267;-76
2021/01/27 07:51:22;;;;;;;2.93;1.00;;;;;;;-2.25;80.76;95418.94;4994495;28;20202;-75
2021/01/27 07:54:04;;;;;;;1.93;1.40;;;;;;;-2.32;81.07;95434.47;4976491;28;20285;-75
2021/01/27 07:56:34;;;;;;;1.20;1.00;;;;;;;-2.35;81.78;95436.34;4976187;28;20280;-75
2021/01/27 07:59:08;;;;;;;1.93;1.43;;;;;;;-2.30;82.04;95442.03;4976744;28;20259;-75
2021/01/27 08:01:46;;;;;;;1.40;1.30;;;;;;;-2.28;82.18;95451.25;4959795;28;20204;-75
2021/01/27 08:04:34;;;;;;;2.00;1.70;;;;;;;-2.31;81.75;95448.00;4976494;28;20298;-74
2021/01/27 08:06:59;;;;;;;6.40;1.70;;;;;;;-2.32;82.60;95457.38;4976239;28;20226;-74
2021/01/27 08:09:33;;;;;;;1.40;1.30;;;;;;;-2.33;82.47;95452.34;4954984;28;20667;-74
2021/01/27 08:12:28;;;;;;;1.63;1.53;;;;;;;-2.35;82.68;95443.97;4984458;28;20184;-75
2021/01/27 08:15:14;;;;;;;8.20;5.43;;;;;;;-2.20;81.88;95452.63;4959065;28;20251;-74
2021/01/27 08:17:55;;;;;;;6.23;3.70;;;;;;;-2.23;81.89;95453.56;4957729;28;20710;-75
2021/01/27 08:20:32;;;;;;;2.87;2.10;;;;;;;-2.22;82.40;95445.03;4976156;28;20183;-75
2021/01/27 08:23:07;;;;;;;1.60;1.50;;;;;;;-2.08;81.87;95444.38;4993599;28;20258;-74
2021/01/27 08:25:51;;;;;;;2.70;2.03;;;;;;;-2.10;81.73;95444.47;4992447;28;20205;-74
2021/01/27 08:28:38;;;;;;;2.10;1.90;;;;;;;-2.14;81.62;95430.22;4993580;28;20192;-74
2021/01/27 08:31:07;;;;;;;2.27;1.80;;;;;;;-2.14;81.98;95429.41;4993176;28;20183;-75
2021/01/27 08:33:44;;;;;;;3.33;2.80;;;;;;;-2.18;82.01;95423.66;4993432;28;20193;-75
2021/01/27 08:36:20;;;;;;;5.97;3.70;;;;;;;-2.11;82.14;95416.56;4992767;28;20205;-75
2021/01/27 08:39:07;;;;;;;3.87;2.83;;;;;;;-2.07;81.66;95429.03;4992924;28;20571;-75
2021/01/27 08:41:50;;;;;;;3.70;3.40;;;;;;;-2.07;82.39;95423.94;4989774;28;20715;-74
2021/01/27 08:44:19;;;;;;;3.73;2.90;;;;;;;-2.01;81.17;95422.84;4976341;28;20190;-74
2021/01/27 08:46:47;;;;;;;3.37;2.70;;;;;;;-2.07;81.36;95423.94;4993070;28;20271;-74
2021/01/27 08:49:37;;;;;;;3.97;2.53;;;;;;;-1.94;81.64;95415.72;4983049;28;20624;-74
2021/01/27 08:52:09;;;;;;;5.17;3.50;;;;;;;-2.09;81.74;95405.41;4980822;28;20187;-75
2021/01/27 08:54:37;;;;;;;3.53;3.00;;;;;;;-1.96;81.67;95410.69;4971940;28;20219;-75
2021/01/27 08:57:23;;;;;;;4.00;2.83;;;;;;;-2.00;82.03;95415.13;4975502;28;20259;-75
2021/01/27 08:59:57;;;;;;;4.17;3.47;;;;;;;-2.13;82.17;95408.97;4975309;28;20260;-75
2021/01/27 09:02:41;;;;;;;5.50;2.90;;;;;;;-2.02;81.61;95405.94;4975355;28;20209;-75
2021/01/27 09:05:23;;;;;;;4.43;2.97;;;;;;;-2.07;82.06;95413.78;4973356;28;20209;-75
2021/01/27 09:07:51;;;;;;;2.90;2.50;;;;;;;-2.06;81.92;95397.59;4984153;28;20197;-75
2021/01/27 09:10:19;;;;;;;3.17;2.70;;;;;;;-2.02;81.82;95409.28;4990908;28;20187;-74
2021/01/27 09:12:46;;;;;;;4.37;3.30;;;;;;;-1.97;81.88;95398.88;4974702;28;20284;-74
2021/01/27 09:15:21;;;;;;;4.30;3.07;;;;;;;-1.94;81.63;95403.84;4974738;28;20268;-75
2021/01/27 09:17:46;;;;;;;5.03;3.47;;;;;;;-2.01;82.31;95385.50;4975326;28;20266;-75
2021/01/27 09:20:12;;;;;;;3.70;3.03;;;;;;;-1.90;81.69;95389.22;4974846;28;20265;-75
2021/01/27 09:22:38;;;;;;;5.30;3.30;;;;;;;-2.06;82.24;95384.88;4992323;28;20301;-75
2021/01/27 09:25:04;;;;;;;6.37;3.27;;;;;;;-2.08;81.61;95378.22;4955244;28;20765;-76
2021/01/27 09:27:31;;;;;;;5.07;3.97;;;;;;;-2.03;82.15;95374.56;4987459;28;20194;-76
2021/01/27 09:30:13;;;;;;;3.73;3.20;;;;;;;-1.99;82.04;95375.22;4972627;28;20192;-76
2021/01/27 09:32:38;;;;;;;5.40;3.33;;;;;;;-1.90;81.88;95371.41;4962808;28;20179;-75
2021/01/27 09:35:22;;;;;;;4.73;3.97;;;;;;;-1.82;81.55;95370.13;4974302;28;20260;-76
2021/01/27 09:37:58;;;;;;;4.13;3.20;;;;;;;-1.73;80.90;95371.38;4973338;28;20195;-75
2021/01/27 09:40:47;;;;;;;4.80;3.17;;;;;;;-1.64;80.94;95370.91;4974720;28;20190;-75
2021/01/27 09:43:14;;;;;;;5.37;3.00;;;;;;;-1.67;80.18;95375.34;4991627;28;20235;-75
2021/01/27 09:45:45;;;;;;;3.20;2.90;;;;;;;-1.61;80.67;95370.75;4955022;28;20573;-75
2021/01/27 09:48:12;;;;;;;5.90;3.50;;;;;;;-1.40;79.77;95362.91;4966304;28;20195;-76
2021/01/27 09:50:39;;;;;;;3.13;2.60;;;;;;;-1.28;79.25;95354.63;4958769;28;20186;-76
2021/01/27 09:53:04;;;;;;;3.90;3.00;;;;;;;-1.20;79.36;95365.22;4957591;28;20275;-75
2021/01/27 09:55:30;;;;;;;5.53;3.23;;;;;;;-1.31;78.74;95365.81;4991972;28;20680;-76
2021/01/27 09:57:56;;;;;;;3.50;2.80;;;;;;;-1.32;78.98;95363.34;4974493;28;20658;-76
2021/01/27 10:00:34;;;;;;;3.57;2.30;;;;;;;-1.39;79.05;95359.47;4958563;28;20268;-75
2021/01/27 10:03:19;;;;;;;3.43;2.67;;;;;;;-1.45;79.44;95351.22;4956977;28;20246;-76
2021/01/27 10:05:44;;;;;;;4.00;2.70;;;;;;;-1.53;79.19;95338.06;4948179;28;20221;-76
2021/01/27 10:08:15;;;;;;;3.50;2.80;;;;;;;-1.55;79.60;95341.59;4967256;28;20180;-76
2021/01/27 10:10:40;;;;;;;4.80;2.93;;;;;;;-1.58;79.86;95347.69;4974298;28;20270;-75
2021/01/27 10:13:07;;;;;;;3.87;3.30;;;;;;;-1.49;79.27;95339.56;4974004;28;20277;-75
2021/01/27 10:15:34;;;;;;;4.10;2.80;;;;;;;-1.54;79.14;95341.53;4956276;28;20204;-75
2021/01/27 10:18:08;;;;;;;4.17;3.23;;;;;;;-1.53;79.18;95348.25;4948984;28;20206;-77
2021/01/27 10:20:38;;;;;;;3.50;2.90;;;;;;;-1.65;79.44;95328.53;4969344;28;20182;-76
2021/01/27 10:23:11;;;;;;;3.43;3.13;;;;;;;-1.56;79.16;95333.16;4974209;28;20213;-77
2021/01/27 10:25:47;;;;;;;3.33;3.00;;;;;;;-1.49;78.87;95331.09;4973881;28;20226;-77
2021/01/27 10:28:13;;;;;;;3.30;3.00;;;;;;;-1.48;79.17;95338.66;4950162;28;20190;-76
2021/01/27 10:31:02;;;;;;;6.63;3.00;;;;;;;-1.28;78.41;95339.34;4974552;28;20190;-76
2021/01/27 10:33:47;;;;;;;6.17;3.03;;;;;;;-1.20;77.93;95339.75;4984308;28;20178;-77
2021/01/27 10:36:34;;;;;;;4.70;3.30;;;;;;;-1.11;78.00;95339.25;4955061;28;20209;-75
2021/01/27 10:39:16;;;;;;;3.50;2.87;;;;;;;-1.22;78.12;95333.94;4971213;28;20218;-76
2021/01/27 10:41:52;;;;;;;3.90;2.93;;;;;;;-1.32;78.00;95335.31;4946312;28;20706;-76
2021/01/27 10:44:23;;;;;;;4.70;3.17;;;;;;;-1.34;78.36;95337.09;4984887;28;20249;-76
2021/01/27 10:46:54;;;;;;;4.20;3.20;;;;;;;-1.37;78.37;95358.47;4971903;28;20222;-76
2021/01/27 10:49:19;;;;;;;5.40;3.40;;;;;;;-1.39;78.76;95350.09;4957269;28;20189;-76
2021/01/27 10:51:45;;;;;;;3.70;3.40;;;;;;;-1.28;78.34;95354.63;4974411;28;20184;-76
2021/01/27 10:54:12;;;;;;;5.20;4.10;;;;;;;-1.08;78.01;95344.19;4974273;28;20228;-76
2021/01/27 10:56:38;;;;;;;3.43;3.13;;;;;;;-1.17;77.70;95344.69;4962053;28;20594;-74
2021/01/27 10:59:03;;;;;;;5.03;3.80;;;;;;;-1.10;77.83;95338.34;4970698;28;20230;-76
2021/01/27 11:01:28;;;;;;;4.07;3.23;;;;;;;-1.02;77.86;95335.41;4968914;28;20640;-73
2021/01/27 11:03:54;;;;;;;3.90;3.47;;;;;;;-1.06;77.98;95328.81;4983905;28;20203;-75
2021/01/27 11:06:19;;;;;;;4.87;4.10;;;;;;;-0.98;77.61;95332.59;4964453;28;20221;-76
2021/01/27 11:08:45;;;;;;;5.60;3.87;;;;;;;-0.88;77.18;95331.19;4969432;28;20235;-75
2021/01/27 11:11:12;;;;;;;4.73;3.83;;;;;;;-0.65;76.32;95336.75;4966855;28;20187;-75
2021/01/27 11:13:37;;;;;;;4.30;3.67;;;;;;;-0.87;77.03;95342.22;4964360;28;20252;-75
2021/01/27 11:16:05;;;;;;;4.10;3.47;;;;;;;-0.73;76.61;95347.38;4969447;28;20293;-75
2021/01/27 11:18:30;;;;;;;5.60;4.07;;;;;;;-0.77;76.62;95337.44;4976274;28;20194;-76
2021/01/27 11:20:57;;;;;;;5.47;3.63;;;;;;;-1.00;76.97;95331.84;4974398;28;20202;-76
2021/01/27 11:23:22;;;;;;;3.90;3.40;;;;;;;-0.77;76.73;95340.81;4944357;28;20269;-75
2021/01/27 11:25:49;;;;;;;4.87;3.50;;;;;;;-0.65;76.81;95337.56;4989660;28;20202;-75
2021/01/27 11:28:14;;;;;;;6.43;3.53;;;;;;;-0.59;76.82;95339.78;4973759;28;20190;-75
2021/01/27 11:30:40;;;;;;;5.10;3.87;;;;;;;-0.78;76.62;95340.91;4954380;28;20184;-75
2021/01/27 11:33:05;;;;;;;5.23;4.10;;;;;;;-0.63;76.56;95334.94;4991829;28;20178;-75
2021/01/27 11:35:31;;;;;;;4.10;3.50;;;;;;;-0.48;75.30;95318.78;4993485;28;20204;-75
2021/01/27 11:37:56;;;;;;;8.70;3.50;;;;;;;-0.42;75.74;95317.63;4967642;28;20601;-75
2021/01/27 11:40:24;;;;;;;4.43;3.50;;;;;;;-0.42;75.14;95312.50;4995189;28;20180;-75
2021/01/27 11:42:50;;;;;;;4.63;3.27;;;;;;;-0.43;74.59;95310.88;4972603;28;20649;-75
2021/01/27 11:45:17;;;;;;;6.00;3.90;;;;;;;-0.60;75.71;95314.38;4975397;28;20249;-75
2021/01/27 11:47:42;;;;;;;5.57;3.67;;;;;;;-0.47;75.74;95307.66;4974217;28;20591;-75
2021/01/27 11:50:08;;;;;;;4.73;3.43;;;;;;;-0.39;75.63;95313.16;4945959;28;20187;-74
2021/01/27 11:52:34;;;;;;;4.10;3.50;;;;;;;-0.64;74.93;95320.53;4962365;28;20270;-75
2021/01/27 11:54:59;;;;;;;4.53;3.57;;;;;;;-0.54;75.29;95319.09;4955635;28;20184;-75
2021/01/27 11:57:25;;;;;;;3.87;3.30;;;;;;;-0.77;76.27;95315.31;4972670;28;20213;-75
2021/01/27 11:59:50;;;;;;;5.20;3.90;;;;;;;-0.86;76.54;95314.09;4969059;28;20236;-74